createdAt,value
2022-11-14T00:00:18.529Z,26.50
2022-11-14T00:05:23.196Z,26.63
2022-11-14T00:10:25.953Z,26.70
2022-11-14T00:15:28.732Z,27.67
2022-11-14T00:20:33.239Z,28.70
2022-11-14T00:25:36.043Z,29.15
2022-11-14T00:30:38.804Z,26.73
2022-11-14T00:35:50.657Z,26.63
2022-11-14T00:40:53.437Z,30.05
2022-11-14T00:45:56.245Z,27.85
2022-11-14T00:51:00.294Z,27.77
2022-11-14T00:56:03.153Z,30.67
2022-11-14T01:01:06.182Z,27.90
2022-11-14T01:06:13.837Z,30.13
2022-11-14T01:11:19.388Z,31.25
2022-11-14T01:16:22.182Z,33.78
2022-11-14T01:21:26.313Z,32.20
2022-11-14T01:26:29.049Z,29.17
2022-11-14T01:31:31.812Z,33.30
2022-11-14T01:36:35.899Z,29.90
2022-11-14T01:41:38.659Z,30.60
2022-11-14T01:46:45.017Z,31.83
2022-11-14T01:51:52.336Z,30.50
2022-11-14T01:56:58.497Z,32.00
2022-11-14T02:02:05.997Z,30.73
2022-11-14T02:07:11.383Z,33.25
2022-11-14T02:12:17.924Z,35.10
2022-11-14T02:17:30.073Z,30.63
2022-11-14T02:22:34.876Z,33.65
2022-11-14T02:27:40.531Z,34.67
2022-11-14T02:38:07.413Z,30.67
2022-11-14T02:43:10.132Z,35.03
2022-11-14T02:48:12.908Z,34.23
2022-11-14T02:53:17.054Z,33.90
2022-11-14T02:58:19.799Z,31.30
2022-11-14T03:03:22.537Z,34.07
2022-11-14T03:08:27.204Z,30.43
2022-11-14T03:13:31.004Z,35.72
2022-11-14T03:18:33.730Z,32.40
2022-11-14T03:23:38.143Z,39.07
2022-11-14T03:28:42.037Z,33.05
2022-11-14T03:33:44.822Z,38.70
2022-11-14T03:38:49.006Z,35.97
2022-11-14T03:43:51.723Z,39.33
2022-11-14T03:48:54.481Z,37.65
2022-11-14T03:53:58.574Z,39.33
2022-11-14T03:59:01.379Z,37.27
2022-11-14T04:04:04.465Z,42.83
2022-11-14T04:09:08.546Z,41.25
2022-11-14T04:14:11.553Z,41.03
2022-11-14T04:19:14.316Z,41.40
2022-11-14T04:24:18.389Z,46.58
2022-11-14T04:29:21.165Z,46.30
2022-11-14T04:34:23.981Z,46.80
2022-11-14T04:39:28.085Z,60.13
2022-11-14T04:44:30.838Z,51.70
2022-11-14T04:49:33.620Z,56.37
2022-11-14T04:54:37.825Z,52.40
2022-11-14T04:59:40.596Z,56.15
2022-11-14T05:04:44.463Z,58.07
2022-11-14T05:09:48.570Z,61.40
2022-11-14T05:14:51.312Z,59.47
2022-11-14T05:19:54.083Z,61.50
2022-11-14T05:24:58.239Z,68.32
2022-11-14T05:30:01.164Z,68.72
2022-11-14T05:35:04.377Z,69.60
2022-11-14T05:40:09.506Z,70.37
2022-11-14T05:45:12.231Z,64.57
2022-11-14T05:50:16.247Z,60.45
2022-11-14T05:55:24.604Z,65.80
2022-11-14T06:00:29.029Z,74.03
2022-11-14T06:05:31.972Z,71.43
2022-11-14T06:10:37.501Z,71.27
2022-11-14T06:15:40.201Z,59.13
2022-11-14T06:20:42.927Z,71.93
2022-11-14T06:25:47.253Z,58.13
2022-11-14T06:30:50.046Z,73.60
2022-11-14T06:35:52.818Z,76.18
2022-11-14T06:41:04.474Z,70.82
2022-11-14T06:46:08.075Z,68.00
2022-11-14T06:51:12.007Z,72.15
2022-11-14T06:56:18.084Z,71.05
2022-11-14T07:01:22.113Z,85.27
2022-11-14T07:06:26.354Z,77.80
2022-11-14T07:11:32.048Z,71.03
2022-11-14T07:16:36.407Z,63.20
2022-11-14T07:21:39.588Z,75.13
2022-11-14T07:26:43.698Z,70.13
2022-11-14T07:31:46.406Z,73.20
2022-11-14T07:36:50.648Z,77.57
2022-11-14T07:41:54.730Z,71.15
2022-11-14T07:46:57.453Z,78.65
2022-11-14T07:52:00.176Z,77.00
2022-11-14T07:57:04.458Z,64.53
2022-11-14T08:02:07.469Z,74.78
2022-11-14T08:07:10.692Z,72.40
2022-11-14T08:12:14.828Z,74.93
2022-11-14T08:17:17.577Z,78.78
2022-11-14T08:22:20.331Z,77.50
2022-11-14T08:27:25.022Z,78.17
2022-11-14T08:32:27.760Z,77.13
2022-11-14T08:37:30.844Z,80.70
2022-11-14T08:42:34.933Z,77.00
2022-11-14T08:47:37.661Z,69.63
2022-11-14T08:52:40.448Z,78.25
2022-11-14T08:57:49.151Z,72.07
2022-11-14T09:02:52.638Z,72.60
2022-11-14T09:07:55.396Z,71.70
2022-11-14T09:13:00.190Z,68.90
2022-11-14T09:18:03.215Z,66.90
2022-11-14T09:23:05.956Z,73.25
2022-11-14T09:28:10.360Z,75.43
2022-11-14T09:33:13.183Z,79.53
2022-11-14T09:38:15.922Z,72.03
2022-11-14T09:43:35.950Z,72.03
2022-11-14T09:48:38.766Z,70.60
2022-11-14T09:53:51.245Z,65.00
2022-11-14T09:58:56.897Z,69.22
2022-11-14T10:04:11.278Z,67.53
2022-11-14T10:09:33.524Z,63.53
2022-11-14T10:15:02.844Z,68.30
2022-11-14T10:20:16.445Z,60.95
2022-11-14T10:25:25.177Z,62.60
2022-11-14T10:30:39.676Z,58.30
2022-11-14T10:35:46.978Z,62.08
2022-11-14T10:40:52.881Z,63.63
2022-11-14T10:46:06.099Z,60.03
2022-11-14T10:51:16.234Z,60.85
2022-11-14T10:56:18.983Z,58.90
2022-11-14T11:01:38.289Z,58.57
2022-11-14T11:06:41.099Z,61.08
2022-11-14T11:11:55.008Z,60.20
2022-11-14T11:17:21.570Z,59.07
2022-11-14T11:22:37.166Z,57.17
2022-11-14T11:27:39.910Z,53.78
2022-11-14T11:32:44.024Z,62.13
2022-11-14T11:37:54.681Z,60.30
2022-11-14T11:43:37.366Z,59.00
2022-11-14T11:48:35.999Z,56.42
2022-11-14T11:53:41.635Z,60.97
2022-11-14T11:58:47.487Z,57.03
2022-11-14T12:03:53.789Z,56.28
2022-11-14T12:09:07.202Z,61.83
2022-11-14T12:14:25.025Z,60.58
2022-11-14T12:19:43.239Z,64.63
2022-11-14T12:25:16.862Z,63.30
2022-11-14T12:30:21.849Z,63.53
2022-11-14T12:35:30.648Z,59.42
2022-11-14T12:40:36.388Z,60.30
2022-11-14T12:46:00.400Z,58.53
2022-11-14T12:51:06.485Z,65.85
2022-11-14T12:56:35.211Z,64.53
2022-11-14T13:01:51.210Z,60.60
2022-11-14T13:07:14.740Z,58.67
2022-11-14T13:12:50.454Z,59.35
2022-11-14T13:18:22.276Z,63.57
2022-11-14T13:23:57.586Z,62.27
2022-11-14T13:29:00.349Z,62.15
2022-11-14T13:34:23.457Z,63.45
2022-11-14T13:39:37.699Z,61.63
2022-11-14T13:45:05.785Z,61.75
2022-11-14T13:50:11.636Z,62.20
2022-11-14T13:55:32.768Z,55.90
2022-11-14T14:01:02.545Z,56.90
2022-11-14T14:06:17.013Z,49.75
2022-11-14T14:11:41.696Z,58.07
2022-11-14T14:16:53.502Z,58.63
2022-11-14T14:22:03.275Z,61.00
2022-11-14T14:27:18.245Z,61.60
2022-11-14T14:32:21.470Z,56.03
2022-11-14T14:37:26.190Z,59.67
2022-11-14T14:42:38.053Z,63.85
2022-11-14T14:47:42.542Z,59.07
2022-11-14T14:52:45.508Z,52.58
2022-11-14T14:57:49.918Z,57.15
2022-11-14T15:02:53.777Z,61.63
2022-11-14T15:07:59.076Z,61.83
2022-11-14T15:13:03.295Z,56.42
2022-11-14T15:18:09.652Z,65.47
2022-11-14T15:23:21.776Z,58.40
2022-11-14T15:28:28.443Z,69.63
2022-11-14T15:33:32.980Z,64.00
2022-11-14T15:38:53.821Z,67.90
2022-11-14T15:44:02.083Z,66.85
2022-11-14T15:49:09.669Z,65.25
2022-11-14T15:54:27.094Z,71.30
2022-11-14T15:59:31.968Z,65.67
2022-11-14T16:04:36.821Z,66.88
2022-11-14T16:09:39.778Z,61.22
2022-11-14T16:14:44.930Z,77.90
2022-11-14T16:19:47.693Z,74.00
2022-11-14T16:24:50.473Z,69.45
2022-11-14T16:29:54.753Z,69.53
2022-11-14T16:34:57.514Z,70.60
2022-11-14T16:40:00.765Z,69.70
2022-11-14T16:45:05.720Z,71.20
2022-11-14T16:50:09.331Z,70.70
2022-11-14T16:55:13.197Z,71.85
2022-11-14T17:00:18.382Z,72.50
2022-11-14T17:05:21.138Z,72.57
2022-11-14T17:10:23.875Z,68.15
2022-11-14T17:15:27.957Z,73.97
2022-11-14T17:20:31.009Z,76.80
2022-11-14T17:25:33.742Z,71.25
2022-11-14T17:30:41.740Z,76.22
2022-11-14T17:35:44.465Z,81.50
2022-11-14T17:40:47.296Z,76.40
2022-11-14T17:45:56.535Z,88.90
2022-11-14T17:51:04.993Z,78.53
2022-11-14T17:56:08.914Z,74.70
2022-11-14T18:01:15.033Z,80.07
2022-11-14T18:06:20.387Z,78.00
2022-11-14T18:11:23.871Z,78.03
2022-11-14T18:16:44.537Z,84.55
2022-11-14T18:21:53.874Z,93.13
2022-11-14T18:26:56.858Z,84.37
2022-11-14T18:32:00.938Z,87.80
2022-11-14T18:37:03.674Z,88.57
2022-11-14T18:42:06.508Z,90.45
2022-11-14T18:47:10.639Z,87.90
2022-11-14T18:52:17.351Z,89.93
2022-11-14T18:57:20.517Z,90.65
2022-11-14T19:02:24.743Z,88.73
2022-11-14T19:07:29.453Z,87.95
2022-11-14T19:12:32.276Z,96.47
2022-11-14T19:17:36.355Z,87.60
2022-11-14T19:22:39.076Z,91.20
2022-11-14T19:27:41.811Z,86.13
2022-11-14T19:32:45.911Z,91.60
2022-11-14T19:37:48.661Z,90.27
2022-11-14T19:42:55.879Z,88.88
2022-11-14T19:48:02.941Z,92.85
2022-11-14T19:53:05.905Z,90.93
2022-11-14T19:58:08.689Z,89.32
2022-11-14T20:03:13.529Z,92.57
2022-11-14T20:08:16.409Z,92.00
2022-11-14T20:13:19.263Z,94.13
2022-11-14T20:18:23.547Z,90.93
2022-11-14T20:23:27.447Z,97.88
2022-11-14T20:28:30.412Z,92.33
2022-11-14T20:33:38.358Z,84.72
2022-11-14T20:38:41.801Z,103.47
2022-11-14T20:43:44.978Z,100.23
2022-11-14T20:48:49.893Z,107.88
2022-11-14T20:53:54.218Z,105.00
2022-11-14T20:58:57.038Z,94.77
2022-11-14T21:04:01.271Z,97.10
2022-11-14T21:09:04.348Z,96.13
2022-11-14T21:14:09.170Z,96.82
2022-11-14T21:19:13.297Z,96.47
2022-11-14T21:24:16.174Z,103.18
2022-11-14T21:29:19.168Z,104.65
2022-11-14T21:34:23.336Z,101.70
2022-11-14T21:39:26.219Z,100.40
2022-11-14T21:44:29.067Z,94.68
2022-11-14T21:49:33.179Z,97.10
2022-11-14T21:54:37.466Z,96.63
2022-11-14T21:59:40.210Z,102.38
2022-11-14T22:04:44.308Z,96.40
2022-11-14T22:09:47.049Z,100.37
2022-11-14T22:14:49.771Z,96.68
2022-11-14T22:19:53.870Z,101.68
2022-11-14T22:24:56.895Z,92.77
2022-11-14T22:29:59.590Z,89.60
2022-11-14T22:35:03.719Z,98.53
2022-11-14T22:40:07.794Z,94.80
2022-11-14T22:45:11.313Z,98.70
2022-11-14T22:50:15.555Z,99.68
2022-11-14T22:55:18.539Z,88.78
2022-11-14T23:00:21.820Z,92.30
2022-11-14T23:05:25.900Z,101.15
2022-11-14T23:10:28.655Z,92.78
2022-11-14T23:15:31.386Z,100.07
2022-11-14T23:20:37.076Z,105.13
2022-11-14T23:25:39.779Z,104.97
2022-11-14T23:30:42.498Z,95.53
2022-11-14T23:35:46.580Z,97.80
2022-11-14T23:40:52.917Z,105.00
2022-11-14T23:45:55.680Z,99.53
2022-11-14T23:50:59.778Z,94.67
2022-11-14T23:56:03.217Z,106.97
